sensor_id;sensor_type;location;lat;lon;timestamp;P1;durP1;ratioP1;P2;durP2;ratioP2
45909;SDS011;31622;55.416;37.840;2024-03-06T00:01:43;1.48;;;0.73;;
45909;SDS011;31622;55.416;37.840;2024-03-06T00:04:09;1.35;;;0.60;;
45909;SDS011;31622;55.416;37.840;2024-03-06T00:06:35;0.57;;;0.50;;
45909;SDS011;31622;55.416;37.840;2024-03-06T00:09:01;1.02;;;0.70;;
45909;SDS011;31622;55.416;37.840;2024-03-06T00:11:28;1.33;;;0.60;;
45909;SDS011;31622;55.416;37.840;2024-03-06T00:13:54;1.73;;;0.80;;
45909;SDS011;31622;55.416;37.840;2024-03-06T00:16:20;1.02;;;0.80;;
45909;SDS011;31622;55.416;37.840;2024-03-06T00:18:45;1.02;;;0.57;;
45909;SDS011;31622;55.416;37.840;2024-03-06T00:21:11;0.90;;;0.60;;
45909;SDS011;31622;55.416;37.840;2024-03-06T00:23:37;0.77;;;0.52;;
45909;SDS011;31622;55.416;37.840;2024-03-06T00:26:03;0.77;;;0.60;;
45909;SDS011;31622;55.416;37.840;2024-03-06T00:28:29;1.35;;;0.60;;
45909;SDS011;31622;55.416;37.840;2024-03-06T00:30:55;1.10;;;0.70;;
45909;SDS011;31622;55.416;37.840;2024-03-06T00:33:21;0.82;;;0.55;;
45909;SDS011;31622;55.416;37.840;2024-03-06T00:35:47;1.05;;;0.50;;
45909;SDS011;31622;55.416;37.840;2024-03-06T00:38:14;1.30;;;0.60;;
45909;SDS011;31622;55.416;37.840;2024-03-06T00:40:39;1.00;;;0.70;;
45909;SDS011;31622;55.416;37.840;2024-03-06T00:43:05;1.05;;;0.52;;
45909;SDS011;31622;55.416;37.840;2024-03-06T00:45:31;0.95;;;0.50;;
45909;SDS011;31622;55.416;37.840;2024-03-06T00:47:57;1.02;;;0.50;;
45909;SDS011;31622;55.416;37.840;2024-03-06T00:50:23;1.10;;;0.47;;
45909;SDS011;31622;55.416;37.840;2024-03-06T00:52:49;1.02;;;0.45;;
45909;SDS011;31622;55.416;37.840;2024-03-06T00:55:15;0.90;;;0.45;;
45909;SDS011;31622;55.416;37.840;2024-03-06T00:57:41;0.63;;;0.40;;
45909;SDS011;31622;55.416;37.840;2024-03-06T01:00:07;0.95;;;0.57;;
45909;SDS011;31622;55.416;37.840;2024-03-06T01:02:38;0.93;;;0.50;;
45909;SDS011;31622;55.416;37.840;2024-03-06T01:05:05;0.95;;;0.55;;
45909;SDS011;31622;55.416;37.840;2024-03-06T01:07:32;1.23;;;0.50;;
45909;SDS011;31622;55.416;37.840;2024-03-06T01:09:59;0.77;;;0.50;;
45909;SDS011;31622;55.416;37.840;2024-03-06T01:12:26;0.77;;;0.40;;
45909;SDS011;31622;55.416;37.840;2024-03-06T01:14:52;0.80;;;0.50;;
45909;SDS011;31622;55.416;37.840;2024-03-06T01:17:18;1.65;;;0.65;;
45909;SDS011;31622;55.416;37.840;2024-03-06T01:19:43;1.20;;;0.70;;
45909;SDS011;31622;55.416;37.840;2024-03-06T01:22:10;0.70;;;0.40;;
45909;SDS011;31622;55.416;37.840;2024-03-06T01:24:36;1.70;;;0.60;;
45909;SDS011;31622;55.416;37.840;2024-03-06T01:27:02;1.30;;;0.57;;
45909;SDS011;31622;55.416;37.840;2024-03-06T01:29:28;0.75;;;0.50;;
45909;SDS011;31622;55.416;37.840;2024-03-06T01:31:54;1.52;;;0.60;;
45909;SDS011;31622;55.416;37.840;2024-03-06T01:34:20;1.70;;;0.63;;
45909;SDS011;31622;55.416;37.840;2024-03-06T01:36:45;0.80;;;0.52;;
45909;SDS011;31622;55.416;37.840;2024-03-06T01:39:11;1.27;;;0.60;;
45909;SDS011;31622;55.416;37.840;2024-03-06T01:41:37;1.80;;;0.68;;
45909;SDS011;31622;55.416;37.840;2024-03-06T01:44:03;1.73;;;0.73;;
45909;SDS011;31622;55.416;37.840;2024-03-06T01:46:29;1.00;;;0.60;;
45909;SDS011;31622;55.416;37.840;2024-03-06T01:48:55;0.68;;;0.47;;
45909;SDS011;31622;55.416;37.840;2024-03-06T01:51:21;1.30;;;0.60;;
45909;SDS011;31622;55.416;37.840;2024-03-06T01:53:47;1.08;;;0.60;;
45909;SDS011;31622;55.416;37.840;2024-03-06T01:56:13;2.53;;;0.70;;
45909;SDS011;31622;55.416;37.840;2024-03-06T01:58:42;1.15;;;0.50;;
45909;SDS011;31622;55.416;37.840;2024-03-06T02:01:08;1.35;;;0.60;;
45909;SDS011;31622;55.416;37.840;2024-03-06T02:03:34;0.93;;;0.57;;
45909;SDS011;31622;55.416;37.840;2024-03-06T02:06:00;1.63;;;0.60;;
45909;SDS011;31622;55.416;37.840;2024-03-06T02:08:27;1.67;;;0.70;;
45909;SDS011;31622;55.416;37.840;2024-03-06T02:10:53;2.00;;;0.80;;
45909;SDS011;31622;55.416;37.840;2024-03-06T02:13:20;1.52;;;0.70;;
45909;SDS011;31622;55.416;37.840;2024-03-06T02:15:46;1.05;;;0.68;;
45909;SDS011;31622;55.416;37.840;2024-03-06T02:18:12;2.63;;;0.82;;
45909;SDS011;31622;55.416;37.840;2024-03-06T02:20:38;1.13;;;0.50;;
45909;SDS011;31622;55.416;37.840;2024-03-06T02:23:05;2.70;;;0.80;;
45909;SDS011;31622;55.416;37.840;2024-03-06T02:25:31;2.47;;;0.60;;
45909;SDS011;31622;55.416;37.840;2024-03-06T02:27:57;1.58;;;0.70;;
45909;SDS011;31622;55.416;37.840;2024-03-06T02:30:22;1.45;;;0.90;;
45909;SDS011;31622;55.416;37.840;2024-03-06T02:32:48;1.23;;;0.75;;
45909;SDS011;31622;55.416;37.840;2024-03-06T02:35:15;2.45;;;1.00;;
45909;SDS011;31622;55.416;37.840;2024-03-06T02:37:42;1.35;;;0.80;;
45909;SDS011;31622;55.416;37.840;2024-03-06T02:40:09;2.22;;;1.10;;
45909;SDS011;31622;55.416;37.840;2024-03-06T02:42:35;2.15;;;1.00;;
45909;SDS011;31622;55.416;37.840;2024-03-06T02:45:05;5.38;;;1.10;;
45909;SDS011;31622;55.416;37.840;2024-03-06T02:47:32;1.90;;;1.05;;
45909;SDS011;31622;55.416;37.840;2024-03-06T02:49:57;1.60;;;0.93;;
45909;SDS011;31622;55.416;37.840;2024-03-06T02:52:23;4.53;;;1.02;;
45909;SDS011;31622;55.416;37.840;2024-03-06T02:54:49;3.85;;;1.17;;
45909;SDS011;31622;55.416;37.840;2024-03-06T02:57:14;1.75;;;1.10;;
45909;SDS011;31622;55.416;37.840;2024-03-06T02:59:40;3.03;;;1.13;;
45909;SDS011;31622;55.416;37.840;2024-03-06T03:02:06;2.45;;;1.30;;
45909;SDS011;31622;55.416;37.840;2024-03-06T03:04:32;2.60;;;1.10;;
45909;SDS011;31622;55.416;37.840;2024-03-06T03:06:57;2.45;;;1.33;;
45909;SDS011;31622;55.416;37.840;2024-03-06T03:09:23;2.80;;;1.10;;
45909;SDS011;31622;55.416;37.840;2024-03-06T03:11:49;1.90;;;1.20;;
45909;SDS011;31622;55.416;37.840;2024-03-06T03:14:15;2.08;;;1.27;;
45909;SDS011;31622;55.416;37.840;2024-03-06T03:16:40;2.72;;;1.10;;
45909;SDS011;31622;55.416;37.840;2024-03-06T03:19:09;3.70;;;1.20;;
45909;SDS011;31622;55.416;37.840;2024-03-06T03:21:35;2.17;;;1.23;;
45909;SDS011;31622;55.416;37.840;2024-03-06T03:24:00;2.33;;;1.30;;
45909;SDS011;31622;55.416;37.840;2024-03-06T03:26:26;3.33;;;1.30;;
45909;SDS011;31622;55.416;37.840;2024-03-06T03:28:52;7.53;;;1.20;;
45909;SDS011;31622;55.416;37.840;2024-03-06T03:31:17;2.90;;;1.20;;
45909;SDS011;31622;55.416;37.840;2024-03-06T03:33:43;2.45;;;1.40;;
45909;SDS011;31622;55.416;37.840;2024-03-06T03:36:09;1.90;;;1.20;;
45909;SDS011;31622;55.416;37.840;2024-03-06T03:38:35;2.03;;;1.30;;
45909;SDS011;31622;55.416;37.840;2024-03-06T03:41:07;2.30;;;1.20;;
45909;SDS011;31622;55.416;37.840;2024-03-06T03:43:33;4.22;;;1.25;;
45909;SDS011;31622;55.416;37.840;2024-03-06T03:45:59;3.83;;;1.40;;
45909;SDS011;31622;55.416;37.840;2024-03-06T03:48:24;12.73;;;1.30;;
45909;SDS011;31622;55.416;37.840;2024-03-06T03:50:50;2.65;;;1.40;;
45909;SDS011;31622;55.416;37.840;2024-03-06T03:53:16;2.35;;;1.23;;
45909;SDS011;31622;55.416;37.840;2024-03-06T03:55:41;4.22;;;1.10;;
45909;SDS011;31622;55.416;37.840;2024-03-06T03:58:07;3.75;;;1.50;;
45909;SDS011;31622;55.416;37.840;2024-03-06T04:00:33;3.35;;;1.13;;
45909;SDS011;31622;55.416;37.840;2024-03-06T04:02:59;2.00;;;1.23;;
45909;SDS011;31622;55.416;37.840;2024-03-06T04:05:24;2.13;;;1.30;;
45909;SDS011;31622;55.416;37.840;2024-03-06T04:07:51;2.13;;;1.65;;
45909;SDS011;31622;55.416;37.840;2024-03-06T04:10:16;2.92;;;1.38;;
45909;SDS011;31622;55.416;37.840;2024-03-06T04:12:42;2.97;;;1.30;;
45909;SDS011;31622;55.416;37.840;2024-03-06T04:15:08;2.20;;;1.40;;
45909;SDS011;31622;55.416;37.840;2024-03-06T04:17:34;2.63;;;1.30;;
45909;SDS011;31622;55.416;37.840;2024-03-06T04:20:03;6.95;;;1.40;;
45909;SDS011;31622;55.416;37.840;2024-03-06T04:22:31;2.47;;;1.48;;
45909;SDS011;31622;55.416;37.840;2024-03-06T04:24:56;1.98;;;1.30;;
45909;SDS011;31622;55.416;37.840;2024-03-06T04:27:24;4.97;;;1.60;;
45909;SDS011;31622;55.416;37.840;2024-03-06T04:29:51;2.58;;;1.38;;
45909;SDS011;31622;55.416;37.840;2024-03-06T04:32:17;4.93;;;1.50;;
45909;SDS011;31622;55.416;37.840;2024-03-06T04:34:43;2.63;;;1.52;;
45909;SDS011;31622;55.416;37.840;2024-03-06T04:37:09;2.60;;;1.52;;
45909;SDS011;31622;55.416;37.840;2024-03-06T04:39:35;3.13;;;1.83;;
45909;SDS011;31622;55.416;37.840;2024-03-06T04:42:00;3.85;;;1.50;;
45909;SDS011;31622;55.416;37.840;2024-03-06T04:44:27;3.17;;;1.42;;
45909;SDS011;31622;55.416;37.840;2024-03-06T04:46:53;4.75;;;2.17;;
45909;SDS011;31622;55.416;37.840;2024-03-06T04:49:18;4.47;;;2.22;;
45909;SDS011;31622;55.416;37.840;2024-03-06T04:51:44;6.43;;;3.00;;
45909;SDS011;31622;55.416;37.840;2024-03-06T04:54:10;4.72;;;2.60;;
45909;SDS011;31622;55.416;37.840;2024-03-06T04:56:35;8.73;;;3.13;;
45909;SDS011;31622;55.416;37.840;2024-03-06T04:59:01;12.07;;;2.70;;
45909;SDS011;31622;55.416;37.840;2024-03-06T05:01:28;12.40;;;3.28;;
45909;SDS011;31622;55.416;37.840;2024-03-06T05:03:55;36.72;;;4.72;;
45909;SDS011;31622;55.416;37.840;2024-03-06T05:06:21;7.03;;;3.47;;
45909;SDS011;31622;55.416;37.840;2024-03-06T05:08:47;6.20;;;2.83;;
45909;SDS011;31622;55.416;37.840;2024-03-06T05:11:13;6.13;;;2.97;;
45909;SDS011;31622;55.416;37.840;2024-03-06T05:13:39;8.25;;;3.00;;
45909;SDS011;31622;55.416;37.840;2024-03-06T05:16:05;5.03;;;2.80;;
45909;SDS011;31622;55.416;37.840;2024-03-06T05:18:32;7.28;;;2.97;;
45909;SDS011;31622;55.416;37.840;2024-03-06T05:20:59;6.75;;;2.80;;
45909;SDS011;31622;55.416;37.840;2024-03-06T05:23:25;5.25;;;2.42;;
45909;SDS011;31622;55.416;37.840;2024-03-06T05:25:51;5.43;;;2.40;;
45909;SDS011;31622;55.416;37.840;2024-03-06T05:28:16;5.03;;;2.78;;
45909;SDS011;31622;55.416;37.840;2024-03-06T05:30:42;5.28;;;3.10;;
45909;SDS011;31622;55.416;37.840;2024-03-06T05:33:08;4.43;;;2.90;;
45909;SDS011;31622;55.416;37.840;2024-03-06T05:35:33;6.28;;;2.95;;
45909;SDS011;31622;55.416;37.840;2024-03-06T05:37:59;6.55;;;3.00;;
45909;SDS011;31622;55.416;37.840;2024-03-06T05:40:25;4.72;;;2.72;;
45909;SDS011;31622;55.416;37.840;2024-03-06T05:42:51;4.88;;;2.83;;
45909;SDS011;31622;55.416;37.840;2024-03-06T05:45:16;6.28;;;3.30;;
45909;SDS011;31622;55.416;37.840;2024-03-06T05:47:43;5.63;;;3.03;;
45909;SDS011;31622;55.416;37.840;2024-03-06T05:50:09;5.55;;;3.28;;
45909;SDS011;31622;55.416;37.840;2024-03-06T05:52:36;7.30;;;3.45;;
45909;SDS011;31622;55.416;37.840;2024-03-06T05:55:02;6.82;;;3.67;;
45909;SDS011;31622;55.416;37.840;2024-03-06T05:57:31;7.07;;;3.13;;
45909;SDS011;31622;55.416;37.840;2024-03-06T05:59:57;7.53;;;3.53;;
45909;SDS011;31622;55.416;37.840;2024-03-06T06:02:23;8.73;;;3.97;;
45909;SDS011;31622;55.416;37.840;2024-03-06T06:04:49;10.30;;;3.65;;
45909;SDS011;31622;55.416;37.840;2024-03-06T06:07:14;10.38;;;3.92;;
45909;SDS011;31622;55.416;37.840;2024-03-06T06:09:41;13.00;;;3.92;;
45909;SDS011;31622;55.416;37.840;2024-03-06T06:12:06;12.63;;;4.72;;
45909;SDS011;31622;55.416;37.840;2024-03-06T06:14:32;15.02;;;5.20;;
45909;SDS011;31622;55.416;37.840;2024-03-06T06:16:58;11.95;;;4.70;;
45909;SDS011;31622;55.416;37.840;2024-03-06T06:19:23;17.60;;;5.75;;
45909;SDS011;31622;55.416;37.840;2024-03-06T06:21:54;15.90;;;5.95;;
45909;SDS011;31622;55.416;37.840;2024-03-06T06:24:19;13.90;;;6.07;;
45909;SDS011;31622;55.416;37.840;2024-03-06T06:26:45;14.40;;;6.60;;
45909;SDS011;31622;55.416;37.840;2024-03-06T06:29:11;15.10;;;7.05;;
45909;SDS011;31622;55.416;37.840;2024-03-06T06:31:37;14.20;;;6.70;;
45909;SDS011;31622;55.416;37.840;2024-03-06T06:34:02;12.68;;;6.25;;
45909;SDS011;31622;55.416;37.840;2024-03-06T06:36:28;16.70;;;6.85;;
45909;SDS011;31622;55.416;37.840;2024-03-06T06:38:54;14.77;;;6.80;;
45909;SDS011;31622;55.416;37.840;2024-03-06T06:41:20;11.43;;;6.63;;
45909;SDS011;31622;55.416;37.840;2024-03-06T06:43:46;13.55;;;6.43;;
45909;SDS011;31622;55.416;37.840;2024-03-06T06:46:11;12.88;;;6.15;;
45909;SDS011;31622;55.416;37.840;2024-03-06T06:48:37;13.10;;;5.75;;
45909;SDS011;31622;55.416;37.840;2024-03-06T06:51:03;9.85;;;5.57;;
45909;SDS011;31622;55.416;37.840;2024-03-06T06:53:29;10.93;;;6.00;;
45909;SDS011;31622;55.416;37.840;2024-03-06T06:55:55;12.60;;;6.25;;
45909;SDS011;31622;55.416;37.840;2024-03-06T06:58:21;14.88;;;6.45;;
45909;SDS011;31622;55.416;37.840;2024-03-06T07:00:47;10.27;;;5.53;;
45909;SDS011;31622;55.416;37.840;2024-03-06T07:03:13;9.70;;;4.80;;
45909;SDS011;31622;55.416;37.840;2024-03-06T07:05:39;10.77;;;5.13;;
45909;SDS011;31622;55.416;37.840;2024-03-06T07:08:06;10.77;;;4.70;;
45909;SDS011;31622;55.416;37.840;2024-03-06T07:10:32;10.02;;;4.28;;
45909;SDS011;31622;55.416;37.840;2024-03-06T07:13:00;8.23;;;4.70;;
45909;SDS011;31622;55.416;37.840;2024-03-06T07:15:25;8.65;;;4.35;;
45909;SDS011;31622;55.416;37.840;2024-03-06T07:17:51;8.65;;;4.10;;
45909;SDS011;31622;55.416;37.840;2024-03-06T07:20:17;9.15;;;4.38;;
45909;SDS011;31622;55.416;37.840;2024-03-06T07:22:43;8.27;;;4.05;;
45909;SDS011;31622;55.416;37.840;2024-03-06T07:25:08;7.40;;;3.47;;
45909;SDS011;31622;55.416;37.840;2024-03-06T07:27:35;7.50;;;4.05;;
45909;SDS011;31622;55.416;37.840;2024-03-06T07:30:01;7.93;;;3.55;;
45909;SDS011;31622;55.416;37.840;2024-03-06T07:32:27;7.53;;;3.85;;
45909;SDS011;31622;55.416;37.840;2024-03-06T07:34:52;7.00;;;4.13;;
45909;SDS011;31622;55.416;37.840;2024-03-06T07:37:18;8.93;;;3.70;;
45909;SDS011;31622;55.416;37.840;2024-03-06T07:39:44;8.50;;;4.10;;
45909;SDS011;31622;55.416;37.840;2024-03-06T07:42:10;14.90;;;3.83;;
45909;SDS011;31622;55.416;37.840;2024-03-06T07:44:36;7.13;;;3.63;;
45909;SDS011;31622;55.416;37.840;2024-03-06T07:47:02;9.38;;;3.85;;
45909;SDS011;31622;55.416;37.840;2024-03-06T07:49:28;8.50;;;3.72;;
45909;SDS011;31622;55.416;37.840;2024-03-06T07:51:54;7.80;;;3.63;;
45909;SDS011;31622;55.416;37.840;2024-03-06T07:54:20;8.27;;;3.15;;
45909;SDS011;31622;55.416;37.840;2024-03-06T07:56:46;7.70;;;3.45;;
45909;SDS011;31622;55.416;37.840;2024-03-06T07:59:12;5.20;;;2.78;;
45909;SDS011;31622;55.416;37.840;2024-03-06T08:01:38;7.15;;;3.15;;
45909;SDS011;31622;55.416;37.840;2024-03-06T08:04:05;6.47;;;2.65;;
45909;SDS011;31622;55.416;37.840;2024-03-06T08:06:30;6.45;;;3.13;;
45909;SDS011;31622;55.416;37.840;2024-03-06T08:08:58;5.32;;;2.53;;
45909;SDS011;31622;55.416;37.840;2024-03-06T08:11:24;6.88;;;2.85;;
45909;SDS011;31622;55.416;37.840;2024-03-06T08:13:50;9.18;;;3.20;;
45909;SDS011;31622;55.416;37.840;2024-03-06T08:16:21;5.00;;;2.55;;
45909;SDS011;31622;55.416;37.840;2024-03-06T08:18:47;4.30;;;2.47;;
45909;SDS011;31622;55.416;37.840;2024-03-06T08:21:12;8.60;;;2.30;;
45909;SDS011;31622;55.416;37.840;2024-03-06T08:23:38;4.88;;;2.05;;
45909;SDS011;31622;55.416;37.840;2024-03-06T08:26:04;7.88;;;2.28;;
45909;SDS011;31622;55.416;37.840;2024-03-06T08:28:29;4.05;;;1.90;;
45909;SDS011;31622;55.416;37.840;2024-03-06T08:30:56;6.30;;;2.45;;
45909;SDS011;31622;55.416;37.840;2024-03-06T08:33:21;5.55;;;2.38;;
45909;SDS011;31622;55.416;37.840;2024-03-06T08:35:48;4.65;;;2.10;;
45909;SDS011;31622;55.416;37.840;2024-03-06T08:38:14;5.22;;;2.03;;
45909;SDS011;31622;55.416;37.840;2024-03-06T08:40:39;3.78;;;1.95;;
45909;SDS011;31622;55.416;37.840;2024-03-06T08:43:07;3.67;;;2.08;;
45909;SDS011;31622;55.416;37.840;2024-03-06T08:45:34;4.95;;;2.05;;
45909;SDS011;31622;55.416;37.840;2024-03-06T08:48:00;5.03;;;1.95;;
45909;SDS011;31622;55.416;37.840;2024-03-06T08:50:25;5.00;;;1.83;;
45909;SDS011;31622;55.416;37.840;2024-03-06T08:52:51;3.95;;;1.85;;
45909;SDS011;31622;55.416;37.840;2024-03-06T08:55:17;5.22;;;1.95;;
45909;SDS011;31622;55.416;37.840;2024-03-06T08:57:42;4.40;;;1.63;;
45909;SDS011;31622;55.416;37.840;2024-03-06T09:00:08;4.97;;;1.98;;
45909;SDS011;31622;55.416;37.840;2024-03-06T09:02:35;2.75;;;1.67;;
45909;SDS011;31622;55.416;37.840;2024-03-06T09:05:04;2.85;;;1.85;;
45909;SDS011;31622;55.416;37.840;2024-03-06T09:07:30;9.10;;;1.63;;
45909;SDS011;31622;55.416;37.840;2024-03-06T09:09:56;3.45;;;1.83;;
45909;SDS011;31622;55.416;37.840;2024-03-06T09:12:22;2.70;;;1.55;;
45909;SDS011;31622;55.416;37.840;2024-03-06T09:14:48;2.33;;;1.48;;
45909;SDS011;31622;55.416;37.840;2024-03-06T09:17:13;3.45;;;1.25;;
45909;SDS011;31622;55.416;37.840;2024-03-06T09:19:39;4.65;;;1.40;;
45909;SDS011;31622;55.416;37.840;2024-03-06T09:22:06;3.33;;;1.65;;
45909;SDS011;31622;55.416;37.840;2024-03-06T09:24:33;4.55;;;1.65;;
45909;SDS011;31622;55.416;37.840;2024-03-06T09:27:00;2.72;;;1.30;;
45909;SDS011;31622;55.416;37.840;2024-03-06T09:29:26;3.58;;;1.38;;
45909;SDS011;31622;55.416;37.840;2024-03-06T09:31:52;2.70;;;1.50;;
45909;SDS011;31622;55.416;37.840;2024-03-06T09:34:18;4.93;;;1.40;;
45909;SDS011;31622;55.416;37.840;2024-03-06T09:36:48;3.35;;;1.58;;
45909;SDS011;31622;55.416;37.840;2024-03-06T09:39:18;3.10;;;1.50;;
45909;SDS011;31622;55.416;37.840;2024-03-06T09:41:50;2.92;;;1.80;;
45909;SDS011;31622;55.416;37.840;2024-03-06T09:44:17;3.33;;;1.88;;
45909;SDS011;31622;55.416;37.840;2024-03-06T09:46:46;4.47;;;1.70;;
45909;SDS011;31622;55.416;37.840;2024-03-06T09:49:17;3.20;;;1.70;;
45909;SDS011;31622;55.416;37.840;2024-03-06T09:51:45;2.40;;;1.80;;
45909;SDS011;31622;55.416;37.840;2024-03-06T09:54:13;4.35;;;2.05;;
45909;SDS011;31622;55.416;37.840;2024-03-06T09:56:46;6.22;;;2.40;;
45909;SDS011;31622;55.416;37.840;2024-03-06T09:59:13;3.53;;;1.75;;
45909;SDS011;31622;55.416;37.840;2024-03-06T10:04:28;2.70;;;1.63;;
45909;SDS011;31622;55.416;37.840;2024-03-06T10:06:55;3.83;;;1.90;;
45909;SDS011;31622;55.416;37.840;2024-03-06T10:09:22;4.53;;;1.88;;
45909;SDS011;31622;55.416;37.840;2024-03-06T10:11:49;4.68;;;1.85;;
45909;SDS011;31622;55.416;37.840;2024-03-06T10:14:15;4.40;;;2.03;;
45909;SDS011;31622;55.416;37.840;2024-03-06T10:16:57;6.03;;;2.00;;
45909;SDS011;31622;55.416;37.840;2024-03-06T10:19:23;3.97;;;2.10;;
45909;SDS011;31622;55.416;37.840;2024-03-06T10:21:56;5.78;;;3.63;;
45909;SDS011;31622;55.416;37.840;2024-03-06T10:24:23;5.55;;;2.47;;
45909;SDS011;31622;55.416;37.840;2024-03-06T10:26:50;6.47;;;2.83;;
45909;SDS011;31622;55.416;37.840;2024-03-06T10:29:19;6.60;;;2.90;;
45909;SDS011;31622;55.416;37.840;2024-03-06T10:34:16;8.55;;;2.88;;
45909;SDS011;31622;55.416;37.840;2024-03-06T10:36:42;9.70;;;3.03;;
45909;SDS011;31622;55.416;37.840;2024-03-06T10:39:08;9.60;;;3.15;;
45909;SDS011;31622;55.416;37.840;2024-03-06T10:41:36;4.90;;;2.70;;
45909;SDS011;31622;55.416;37.840;2024-03-06T10:44:06;5.43;;;2.30;;
45909;SDS011;31622;55.416;37.840;2024-03-06T10:46:39;6.05;;;2.72;;
45909;SDS011;31622;55.416;37.840;2024-03-06T10:49:12;4.70;;;2.50;;
45909;SDS011;31622;55.416;37.840;2024-03-06T10:51:41;5.22;;;2.40;;
45909;SDS011;31622;55.416;37.840;2024-03-06T10:54:10;8.30;;;2.80;;
45909;SDS011;31622;55.416;37.840;2024-03-06T10:56:40;7.40;;;2.67;;
45909;SDS011;31622;55.416;37.840;2024-03-06T10:59:10;11.02;;;2.58;;
45909;SDS011;31622;55.416;37.840;2024-03-06T11:01:37;6.22;;;2.28;;
45909;SDS011;31622;55.416;37.840;2024-03-06T11:04:04;5.25;;;2.33;;
45909;SDS011;31622;55.416;37.840;2024-03-06T11:06:31;6.57;;;2.40;;
45909;SDS011;31622;55.416;37.840;2024-03-06T11:08:58;6.28;;;2.60;;
45909;SDS011;31622;55.416;37.840;2024-03-06T11:11:24;6.05;;;2.35;;
45909;SDS011;31622;55.416;37.840;2024-03-06T11:13:54;4.30;;;2.22;;
45909;SDS011;31622;55.416;37.840;2024-03-06T11:19:08;3.17;;;2.10;;
45909;SDS011;31622;55.416;37.840;2024-03-06T11:21:34;3.08;;;1.88;;
45909;SDS011;31622;55.416;37.840;2024-03-06T11:24:17;5.95;;;2.30;;
45909;SDS011;31622;55.416;37.840;2024-03-06T11:32:36;10.90;;;2.42;;
45909;SDS011;31622;55.416;37.840;2024-03-06T11:35:04;4.30;;;2.10;;
45909;SDS011;31622;55.416;37.840;2024-03-06T11:37:33;3.60;;;2.35;;
45909;SDS011;31622;55.416;37.840;2024-03-06T11:40:00;5.95;;;2.30;;
45909;SDS011;31622;55.416;37.840;2024-03-06T11:42:34;4.03;;;1.90;;
45909;SDS011;31622;55.416;37.840;2024-03-06T11:45:15;3.83;;;1.88;;
45909;SDS011;31622;55.416;37.840;2024-03-06T11:50:23;4.07;;;2.38;;
45909;SDS011;31622;55.416;37.840;2024-03-06T11:52:51;2.97;;;1.63;;
45909;SDS011;31622;55.416;37.840;2024-03-06T11:55:17;3.83;;;1.92;;
45909;SDS011;31622;55.416;37.840;2024-03-06T11:57:43;5.32;;;1.92;;
45909;SDS011;31622;55.416;37.840;2024-03-06T12:00:08;5.10;;;1.85;;
45909;SDS011;31622;55.416;37.840;2024-03-06T12:02:36;3.75;;;1.98;;
45909;SDS011;31622;55.416;37.840;2024-03-06T12:05:02;5.05;;;1.60;;
45909;SDS011;31622;55.416;37.840;2024-03-06T12:07:28;6.13;;;1.90;;
45909;SDS011;31622;55.416;37.840;2024-03-06T12:09:54;4.85;;;1.52;;
45909;SDS011;31622;55.416;37.840;2024-03-06T12:12:20;2.85;;;1.50;;
45909;SDS011;31622;55.416;37.840;2024-03-06T12:14:55;5.53;;;1.70;;
45909;SDS011;31622;55.416;37.840;2024-03-06T12:17:24;3.13;;;1.50;;
45909;SDS011;31622;55.416;37.840;2024-03-06T12:19:49;3.95;;;1.63;;
45909;SDS011;31622;55.416;37.840;2024-03-06T12:22:15;3.85;;;2.08;;
45909;SDS011;31622;55.416;37.840;2024-03-06T12:24:41;6.50;;;2.10;;
45909;SDS011;31622;55.416;37.840;2024-03-06T12:27:07;7.13;;;2.60;;
45909;SDS011;31622;55.416;37.840;2024-03-06T12:29:34;5.90;;;2.70;;
45909;SDS011;31622;55.416;37.840;2024-03-06T12:32:02;8.38;;;3.10;;
45909;SDS011;31622;55.416;37.840;2024-03-06T12:34:28;13.95;;;2.72;;
45909;SDS011;31622;55.416;37.840;2024-03-06T12:36:55;6.15;;;2.70;;
45909;SDS011;31622;55.416;37.840;2024-03-06T12:39:23;6.65;;;2.90;;
45909;SDS011;31622;55.416;37.840;2024-03-06T12:41:52;4.78;;;2.80;;
45909;SDS011;31622;55.416;37.840;2024-03-06T12:44:21;6.35;;;3.03;;
45909;SDS011;31622;55.416;37.840;2024-03-06T12:46:47;22.65;;;3.03;;
45909;SDS011;31622;55.416;37.840;2024-03-06T12:49:14;16.90;;;3.10;;
45909;SDS011;31622;55.416;37.840;2024-03-06T12:51:40;15.52;;;3.33;;
45909;SDS011;31622;55.416;37.840;2024-03-06T12:54:05;29.15;;;4.00;;
45909;SDS011;31622;55.416;37.840;2024-03-06T12:56:31;21.20;;;3.40;;
45909;SDS011;31622;55.416;37.840;2024-03-06T12:58:57;39.67;;;4.55;;
45909;SDS011;31622;55.416;37.840;2024-03-06T13:01:22;21.42;;;3.70;;
45909;SDS011;31622;55.416;37.840;2024-03-06T13:03:48;21.95;;;3.50;;
45909;SDS011;31622;55.416;37.840;2024-03-06T13:06:14;17.20;;;3.03;;
45909;SDS011;31622;55.416;37.840;2024-03-06T13:08:40;16.90;;;3.20;;
45909;SDS011;31622;55.416;37.840;2024-03-06T13:11:06;12.07;;;3.17;;
45909;SDS011;31622;55.416;37.840;2024-03-06T13:13:32;7.68;;;2.78;;
45909;SDS011;31622;55.416;37.840;2024-03-06T13:15:59;8.07;;;2.30;;
45909;SDS011;31622;55.416;37.840;2024-03-06T13:18:25;8.73;;;2.42;;
45909;SDS011;31622;55.416;37.840;2024-03-06T13:20:51;4.30;;;2.08;;
45909;SDS011;31622;55.416;37.840;2024-03-06T13:23:17;10.40;;;2.10;;
45909;SDS011;31622;55.416;37.840;2024-03-06T13:25:42;6.38;;;2.53;;
45909;SDS011;31622;55.416;37.840;2024-03-06T13:28:09;6.70;;;2.85;;
45909;SDS011;31622;55.416;37.840;2024-03-06T13:30:35;5.88;;;2.40;;
45909;SDS011;31622;55.416;37.840;2024-03-06T13:33:00;9.98;;;2.90;;
45909;SDS011;31622;55.416;37.840;2024-03-06T13:35:26;7.03;;;3.15;;
45909;SDS011;31622;55.416;37.840;2024-03-06T13:37:53;6.20;;;3.38;;
45909;SDS011;31622;55.416;37.840;2024-03-06T13:40:19;8.75;;;3.25;;
45909;SDS011;31622;55.416;37.840;2024-03-06T13:42:45;10.55;;;3.47;;
45909;SDS011;31622;55.416;37.840;2024-03-06T13:45:11;8.45;;;3.88;;
45909;SDS011;31622;55.416;37.840;2024-03-06T13:47:37;9.38;;;4.10;;
45909;SDS011;31622;55.416;37.840;2024-03-06T13:50:06;12.77;;;4.63;;
45909;SDS011;31622;55.416;37.840;2024-03-06T13:52:33;8.57;;;3.92;;
45909;SDS011;31622;55.416;37.840;2024-03-06T13:55:00;8.75;;;3.65;;
45909;SDS011;31622;55.416;37.840;2024-03-06T13:57:27;8.35;;;3.80;;
45909;SDS011;31622;55.416;37.840;2024-03-06T13:59:54;5.72;;;3.33;;
45909;SDS011;31622;55.416;37.840;2024-03-06T14:02:19;6.57;;;3.60;;
45909;SDS011;31622;55.416;37.840;2024-03-06T14:04:46;13.27;;;3.72;;
45909;SDS011;31622;55.416;37.840;2024-03-06T14:07:11;8.93;;;4.97;;
45909;SDS011;31622;55.416;37.840;2024-03-06T14:09:37;10.02;;;4.13;;
45909;SDS011;31622;55.416;37.840;2024-03-06T14:12:03;6.70;;;3.30;;
45909;SDS011;31622;55.416;37.840;2024-03-06T14:14:29;6.80;;;3.28;;
45909;SDS011;31622;55.416;37.840;2024-03-06T14:16:55;7.18;;;3.40;;
45909;SDS011;31622;55.416;37.840;2024-03-06T14:19:20;6.80;;;3.08;;
45909;SDS011;31622;55.416;37.840;2024-03-06T14:21:47;27.90;;;4.63;;
45909;SDS011;31622;55.416;37.840;2024-03-06T14:24:13;9.27;;;3.08;;
45909;SDS011;31622;55.416;37.840;2024-03-06T14:26:38;8.55;;;3.05;;
45909;SDS011;31622;55.416;37.840;2024-03-06T14:29:05;9.68;;;3.20;;
45909;SDS011;31622;55.416;37.840;2024-03-06T14:31:33;7.55;;;3.05;;
45909;SDS011;31622;55.416;37.840;2024-03-06T14:33:59;6.93;;;2.83;;
45909;SDS011;31622;55.416;37.840;2024-03-06T14:36:25;5.47;;;2.58;;
45909;SDS011;31622;55.416;37.840;2024-03-06T14:38:51;6.65;;;3.20;;
45909;SDS011;31622;55.416;37.840;2024-03-06T14:41:20;8.38;;;2.60;;
45909;SDS011;31622;55.416;37.840;2024-03-06T14:43:46;5.63;;;2.70;;
45909;SDS011;31622;55.416;37.840;2024-03-06T14:46:11;5.20;;;2.50;;